Time;durP1;ratioP1;P1;durP2;ratioP2;P2;SDS_P1;SDS_P2;PMS_P1;PMS_P2;Temp;Humidity;BMP_temperature;BMP_pressure;BME280_temperature;BME280_humidity;BME280_pressure;Samples;Min_cycle;Max_cycle;Signal;HPM_P1;HPM_P2
2022/01/19 00:00:50;;;;;;;30.73;17.20;;;8.60;80.00;;;;;;5097011;28;20032;-65
2022/01/19 00:03:16;;;;;;;33.70;16.65;;;8.60;80.10;;;;;;5096002;28;20090;-65
2022/01/19 00:05:41;;;;;;;31.50;17.10;;;8.60;80.20;;;;;;5095237;28;20016;-65
2022/01/19 00:08:07;;;;;;;30.73;17.25;;;8.60;80.10;;;;;;5095884;28;20028;-65
2022/01/19 00:10:34;;;;;;;35.53;18.25;;;8.60;80.10;;;;;;5096189;28;20482;-65
2022/01/19 00:13:00;;;;;;;30.35;18.27;;;8.60;80.10;;;;;;5097035;28;20452;-65
2022/01/19 00:15:27;;;;;;;35.47;18.38;;;8.60;80.10;;;;;;5096139;28;20028;-65
2022/01/19 00:17:56;;;;;;;36.35;18.67;;;8.60;80.10;;;;;;5095625;28;20040;-65
2022/01/19 00:20:22;;;;;;;37.10;18.92;;;8.60;80.10;;;;;;5095149;28;20024;-65
2022/01/19 00:22:49;;;;;;;37.55;18.60;;;8.60;80.10;;;;;;5096872;28;20078;-65
2022/01/19 00:25:15;;;;;;;38.58;18.55;;;8.60;80.10;;;;;;5096234;28;20337;-65
2022/01/19 00:27:40;;;;;;;34.05;17.08;;;8.60;80.10;;;;;;5095236;28;20039;-65
2022/01/19 00:30:07;;;;;;;31.93;16.93;;;8.60;80.00;;;;;;5095012;28;20044;-65
2022/01/19 00:32:33;;;;;;;36.13;19.27;;;8.60;80.00;;;;;;5096305;28;20464;-65
2022/01/19 00:35:00;;;;;;;38.38;18.90;;;8.60;80.00;;;;;;5095799;28;20024;-65
2022/01/19 00:37:26;;;;;;;29.85;17.27;;;8.60;80.00;;;;;;5094883;28;20028;-65
2022/01/19 00:39:52;;;;;;;34.57;17.10;;;8.60;80.00;;;;;;5095152;28;20368;-65
2022/01/19 00:42:19;;;;;;;33.00;17.55;;;8.60;80.00;;;;;;5095838;28;20035;-65
2022/01/19 00:44:45;;;;;;;27.37;14.93;;;8.60;80.10;;;;;;5096267;28;20024;-65
2022/01/19 00:47:11;;;;;;;31.55;16.30;;;8.60;80.00;;;;;;5095698;28;20024;-65
2022/01/19 00:49:37;;;;;;;35.08;17.48;;;8.50;80.00;;;;;;5095710;28;20286;-65
2022/01/19 00:52:03;;;;;;;33.45;17.77;;;8.50;80.00;;;;;;5095787;28;20027;-65
2022/01/19 00:54:29;;;;;;;34.30;16.25;;;8.50;80.00;;;;;;5095673;28;20024;-65
2022/01/19 00:56:55;;;;;;;34.47;17.92;;;8.50;80.00;;;;;;5091136;28;20035;-65
2022/01/19 00:59:20;;;;;;;28.50;16.35;;;8.50;80.00;;;;;;5095504;28;20101;-65
2022/01/19 01:01:46;;;;;;;33.42;17.80;;;8.50;80.00;;;;;;5094719;28;20031;-65
2022/01/19 01:04:14;;;;;;;29.98;16.25;;;8.50;80.00;;;;;;5077602;28;20024;-65
2022/01/19 01:06:40;;;;;;;31.17;16.58;;;8.50;80.00;;;;;;5086969;28;20115;-66
2022/01/19 01:09:05;;;;;;;35.47;17.57;;;8.40;79.90;;;;;;5095377;28;20020;-65
2022/01/19 01:11:36;;;;;;;29.77;17.33;;;8.40;80.00;;;;;;5094526;28;20040;-65
2022/01/19 01:16:40;;;;;;;31.10;16.55;;;8.30;80.00;;;;;;5094612;28;20460;-65
2022/01/19 01:19:10;;;;;;;30.70;17.00;;;8.30;80.00;;;;;;5094064;28;20118;-65
2022/01/19 01:21:37;;;;;;;34.22;17.00;;;8.30;79.90;;;;;;5093905;28;20051;-65
2022/01/19 01:24:05;;;;;;;29.83;16.85;;;8.30;80.00;;;;;;5094012;28;20435;-65
2022/01/19 01:26:30;;;;;;;29.92;16.33;;;8.20;79.80;;;;;;5094051;28;20020;-65
2022/01/19 01:28:56;;;;;;;29.83;16.60;;;8.20;79.80;;;;;;5076578;28;20074;-65
2022/01/19 01:31:22;;;;;;;31.05;16.45;;;8.20;79.80;;;;;;5094010;28;20071;-65
2022/01/19 01:33:47;;;;;;;36.23;17.67;;;8.20;79.80;;;;;;5076816;28;20028;-65
2022/01/19 01:36:14;;;;;;;36.97;19.15;;;8.10;79.80;;;;;;5093551;28;20457;-65
2022/01/19 01:38:40;;;;;;;32.07;16.70;;;8.10;79.90;;;;;;5093651;28;20047;-65
2022/01/19 01:41:11;;;;;;;36.72;18.30;;;8.10;80.00;;;;;;5093618;28;20044;-65
2022/01/19 01:43:37;;;;;;;33.88;16.50;;;8.10;79.90;;;;;;5073790;28;20021;-66
2022/01/19 01:46:06;;;;;;;34.37;17.87;;;8.00;79.90;;;;;;5084227;28;20024;-66
2022/01/19 01:48:40;;;;;;;35.45;17.40;;;8.00;79.80;;;;;;5093342;28;20460;-65
2022/01/19 01:53:54;;;;;;;38.57;17.73;;;8.00;79.90;;;;;;5092479;28;20380;-65
2022/01/19 01:56:19;;;;;;;36.75;18.20;;;7.90;79.90;;;;;;5076761;28;20050;-65
2022/01/19 01:58:50;;;;;;;34.33;17.87;;;7.90;80.00;;;;;;5076758;28;20024;-65
2022/01/19 02:01:27;;;;;;;32.83;17.70;;;7.90;80.00;;;;;;5094076;28;20036;-65
2022/01/19 02:03:53;;;;;;;43.40;19.00;;;7.90;80.00;;;;;;5072998;28;20023;-66
2022/01/19 02:22:32;;;;;;;33.70;15.32;;;7.60;80.40;;;;;;4996430;28;20049;-65
2022/01/19 02:24:57;;;;;;;27.27;15.43;;;7.60;80.40;;;;;;5012992;28;20113;-65
2022/01/19 02:30:46;;;;;;;24.00;13.20;;;7.50;80.30;;;;;;4993246;28;20053;-65
2022/01/19 02:41:13;;;;;;;24.23;14.23;;;7.30;81.00;;;;;;4996480;28;20430;-65
2022/01/19 02:43:45;;;;;;;25.30;13.17;;;7.30;80.30;;;;;;5013028;28;20076;-65
2022/01/19 02:49:14;;;;;;;25.07;15.03;;;7.30;80.30;;;;;;5012340;28;20049;-65
2022/01/19 02:51:41;;;;;;;29.67;16.00;;;7.30;80.20;;;;;;5013156;28;20042;-65
2022/01/19 02:54:16;;;;;;;23.90;14.73;;;7.30;80.20;;;;;;5015882;28;20030;-65
2022/01/19 02:56:45;;;;;;;24.53;14.63;;;7.30;80.20;;;;;;5094630;28;20581;-65
2022/01/19 02:59:17;;;;;;;22.90;12.67;;;7.30;80.10;;;;;;5093740;28;20040;-65
2022/01/19 03:09:46;;;;;;;24.03;13.60;;;7.20;80.00;;;;;;5087860;28;20116;-65
2022/01/19 03:12:13;;;;;;;29.00;16.60;;;7.20;79.90;;;;;;5098068;28;20020;-65
2022/01/19 03:14:39;;;;;;;28.60;15.93;;;7.20;79.90;;;;;;5092536;28;20036;-65
2022/01/19 03:17:07;;;;;;;30.33;15.80;;;7.10;79.80;;;;;;5086813;28;20017;-65
2022/01/19 03:19:34;;;;;;;27.20;16.07;;;7.20;79.80;;;;;;5108580;28;20032;-65
2022/01/19 03:22:00;;;;;;;33.47;16.57;;;7.10;79.60;;;;;;5093071;28;20023;-65
2022/01/19 03:24:26;;;;;;;32.47;18.10;;;7.10;79.60;;;;;;5092478;28;20085;-65
2022/01/19 03:26:52;;;;;;;33.13;17.07;;;7.10;79.50;;;;;;5092774;28;20032;-65
2022/01/19 03:29:21;;;;;;;29.00;16.27;;;7.10;79.50;;;;;;5094051;28;20048;-65
2022/01/19 03:31:49;;;;;;;28.10;17.67;;;7.10;79.40;;;;;;5096855;28;20055;-65
2022/01/19 03:34:16;;;;;;;30.63;16.93;;;7.00;79.40;;;;;;5096857;28;20165;-65
2022/01/19 03:36:43;;;;;;;29.13;16.80;;;7.00;79.40;;;;;;5096177;28;20043;-65
2022/01/19 03:39:09;;;;;;;29.50;16.63;;;7.00;79.20;;;;;;5096643;28;20097;-65
2022/01/19 03:41:36;;;;;;;31.87;16.43;;;7.00;79.20;;;;;;5096145;28;20024;-65
2022/01/19 03:44:01;;;;;;;25.57;15.93;;;7.00;79.20;;;;;;5079550;28;20028;-65
2022/01/19 03:46:33;;;;;;;28.43;16.97;;;6.90;79.20;;;;;;5096259;28;20024;-65
2022/01/19 03:49:09;;;;;;;31.00;16.83;;;6.90;79.20;;;;;;5095208;28;20478;-65
2022/01/19 03:51:36;;;;;;;33.87;17.27;;;6.90;79.20;;;;;;5076475;28;20384;-65
2022/01/19 03:54:02;;;;;;;30.07;16.50;;;6.90;79.20;;;;;;5095701;28;20032;-65
2022/01/19 03:56:27;;;;;;;28.93;15.83;;;6.90;79.20;;;;;;5100426;28;20043;-65
2022/01/19 03:58:53;;;;;;;30.10;16.83;;;6.80;79.00;;;;;;5096025;28;20032;-65
2022/01/19 04:01:19;;;;;;;27.13;15.90;;;6.80;78.90;;;;;;5095538;28;20054;-65
2022/01/19 04:06:26;;;;;;;29.43;16.30;;;6.80;79.00;;;;;;5095929;28;20058;-65
2022/01/19 04:08:52;;;;;;;29.33;15.93;;;6.70;78.90;;;;;;5078703;28;20433;-65
2022/01/19 04:11:20;;;;;;;25.10;15.13;;;6.70;78.90;;;;;;5078905;28;20059;-65
2022/01/19 04:16:30;;;;;;;30.97;17.53;;;6.60;78.80;;;;;;5095253;28;20054;-65
2022/01/19 04:19:56;;;;;;;26.43;14.70;;;6.60;78.80;;;;;;5094903;28;20035;-65
2022/01/19 04:21:59;;;;;;;27.23;15.77;;;6.60;78.70;;;;;;5088269;28;20100;-65
2022/01/19 04:24:25;;;;;;;25.93;15.50;;;6.60;78.80;;;;;;5095430;28;20520;-65
2022/01/19 04:27:31;;;;;;;29.10;17.07;;;6.50;78.70;;;;;;5095933;28;20051;-64
2022/01/19 04:30:11;;;;;;;30.90;16.27;;;6.50;78.70;;;;;;5110742;28;20063;-65
2022/01/19 04:35:26;;;;;;;27.40;15.53;;;6.50;78.80;;;;;;5094885;28;20023;-65
2022/01/19 05:01:40;;;;;;;24.40;15.10;;;6.20;78.40;;;;;;5095281;28;20036;-65
2022/01/19 05:06:05;;;;;;;26.40;14.70;;;6.20;78.50;;;;;;5082969;28;20035;-65
2022/01/19 05:08:45;;;;;;;24.23;13.87;;;6.20;78.40;;;;;;5094196;28;20032;-65
2022/01/19 05:13:56;;;;;;;24.43;13.43;;;6.20;78.30;;;;;;5094705;28;20030;-65
2022/01/19 05:16:27;;;;;;;27.05;14.70;;;6.20;78.30;;;;;;5094756;28;20129;-65
2022/01/19 05:18:54;;;;;;;23.90;13.53;;;6.20;78.40;;;;;;5094547;28;20051;-65
2022/01/19 05:21:20;;;;;;;26.37;14.63;;;6.20;78.40;;;;;;5077935;28;20405;-65
2022/01/19 05:24:15;;;;;;;22.97;13.10;;;6.20;78.40;;;;;;5075996;28;20025;-65
2022/01/19 05:26:52;;;;;;;21.83;13.13;;;6.30;78.40;;;;;;5094617;28;20024;-65
2022/01/19 05:29:25;;;;;;;22.87;12.00;;;6.30;78.40;;;;;;5093729;28;20039;-65
2022/01/19 05:31:51;;;;;;;22.10;12.90;;;6.30;78.40;;;;;;5077337;28;20028;-65
2022/01/19 05:34:16;;;;;;;19.87;12.23;;;6.40;78.40;;;;;;5087906;28;20034;-65
2022/01/19 05:36:50;;;;;;;23.27;13.33;;;6.40;79.00;;;;;;5096396;28;20342;-65
2022/01/19 05:39:20;;;;;;;20.20;12.93;;;6.40;78.30;;;;;;5088990;28;20055;-65
2022/01/19 05:42:05;;;;;;;21.47;12.23;;;6.50;78.30;;;;;;5088794;28;20043;-65
2022/01/19 05:44:32;;;;;;;19.57;12.33;;;6.40;78.30;;;;;;5084383;28;20028;-65
2022/01/19 05:46:58;;;;;;;21.27;13.53;;;6.50;78.30;;;;;;5093872;28;20024;-65
2022/01/19 05:49:24;;;;;;;21.93;12.97;;;6.50;78.30;;;;;;5076451;28;20039;-65
2022/01/19 05:51:49;;;;;;;22.33;12.60;;;6.50;78.30;;;;;;5091708;28;20036;-65
2022/01/19 05:54:17;;;;;;;21.83;13.77;;;6.50;78.30;;;;;;5089347;28;20078;-65
2022/01/19 05:56:43;;;;;;;20.97;13.17;;;6.50;78.30;;;;;;5093244;28;20059;-65
2022/01/19 05:59:15;;;;;;;24.00;14.20;;;6.50;78.30;;;;;;5077438;28;20027;-65
2022/01/19 06:01:41;;;;;;;23.07;13.30;;;6.40;78.20;;;;;;5076914;28;20035;-65
2022/01/19 06:04:07;;;;;;;23.53;14.23;;;6.50;78.20;;;;;;5093527;28;20031;-65
2022/01/19 06:06:53;;;;;;;20.57;13.23;;;6.40;78.10;;;;;;5091749;28;20043;-65
2022/01/19 06:09:34;;;;;;;24.30;15.03;;;6.40;78.20;;;;;;5093806;28;20371;-65
2022/01/19 06:12:07;;;;;;;23.73;15.68;;;6.40;78.20;;;;;;5093519;28;20027;-65
2022/01/19 06:14:34;;;;;;;23.47;14.83;;;6.40;78.20;;;;;;5089032;28;20353;-65
2022/01/19 06:17:01;;;;;;;21.47;14.97;;;6.40;78.30;;;;;;5093292;28;20031;-65
2022/01/19 06:19:27;;;;;;;28.97;15.77;;;6.40;78.20;;;;;;5092165;28;20024;-65
2022/01/19 06:21:53;;;;;;;23.77;15.00;;;6.50;78.30;;;;;;5093007;28;20043;-65
2022/01/19 06:24:19;;;;;;;26.43;16.37;;;6.50;78.30;;;;;;5093127;28;20364;-65
2022/01/19 06:26:45;;;;;;;28.27;16.03;;;6.50;78.30;;;;;;5093757;28;20024;-65
2022/01/19 06:29:11;;;;;;;26.53;16.97;;;6.50;78.20;;;;;;5099756;28;20063;-65
2022/01/19 06:31:37;;;;;;;31.07;18.07;;;6.50;78.20;;;;;;5092023;28;20068;-66
2022/01/19 06:34:04;;;;;;;32.93;19.53;;;6.50;78.30;;;;;;5093459;28;20032;-65
2022/01/19 06:36:43;;;;;;;37.90;21.67;;;6.40;78.20;;;;;;5110473;28;20035;-65
2022/01/19 06:39:26;;;;;;;36.27;19.67;;;6.40;78.30;;;;;;5079931;28;20097;-65
2022/01/19 06:42:03;;;;;;;36.87;20.03;;;6.40;78.40;;;;;;5093400;28;20066;-65
2022/01/19 06:44:28;;;;;;;34.13;19.67;;;6.50;78.40;;;;;;5093257;28;20101;-65
2022/01/19 06:46:54;;;;;;;40.43;22.20;;;6.50;78.50;;;;;;5093227;28;20428;-65
2022/01/19 06:49:20;;;;;;;36.60;22.13;;;6.50;78.50;;;;;;5093223;28;20027;-65
2022/01/19 06:51:46;;;;;;;44.77;22.47;;;6.50;78.50;;;;;;5093310;28;20020;-65
2022/01/19 06:54:11;;;;;;;46.03;23.63;;;6.50;78.50;;;;;;5093169;28;20040;-66
2022/01/19 06:56:37;;;;;;;40.93;22.23;;;6.50;78.40;;;;;;5092434;28;20027;-65
2022/01/19 06:59:29;;;;;;;;;;;6.50;78.50;;;;;;5088016;28;20471;-65
2022/01/19 07:02:04;;;;;;;39.57;20.77;;;6.40;78.50;;;;;;5090702;28;20333;-66
2022/01/19 07:04:47;;;;;;;40.47;21.60;;;6.40;79.20;;;;;;5094129;28;20024;-66
2022/01/19 07:07:13;;;;;;;41.30;21.07;;;6.40;78.50;;;;;;5096549;28;20032;-65
2022/01/19 07:09:55;;;;;;;38.40;21.20;;;6.50;78.50;;;;;;5096997;28;20098;-65
2022/01/19 07:12:21;;;;;;;39.83;21.03;;;6.50;78.30;;;;;;5092349;28;20020;-66
2022/01/19 07:14:47;;;;;;;38.80;21.43;;;6.60;78.30;;;;;;5096786;28;20031;-66
2022/01/19 07:17:13;;;;;;;40.90;21.73;;;6.50;78.20;;;;;;5097588;28;20028;-67
2022/01/19 07:19:39;;;;;;;45.40;23.47;;;6.60;78.20;;;;;;5091216;28;20028;-66
2022/01/19 07:22:05;;;;;;;37.47;21.33;;;6.50;78.20;;;;;;5094787;28;20012;-66
2022/01/19 07:24:32;;;;;;;39.57;21.47;;;6.50;78.30;;;;;;5070599;28;20042;-67
2022/01/19 07:26:58;;;;;;;38.57;21.73;;;6.50;78.20;;;;;;5094908;28;20415;-66
2022/01/19 07:29:26;;;;;;;34.97;20.43;;;6.50;78.10;;;;;;5094957;28;20044;-66
2022/01/19 07:31:56;;;;;;;35.23;20.93;;;6.50;78.10;;;;;;5076132;28;20362;-66
2022/01/19 07:34:23;;;;;;;37.80;20.30;;;6.50;78.20;;;;;;5082374;28;20020;-67
2022/01/19 07:36:48;;;;;;;37.17;18.77;;;6.50;78.10;;;;;;5094565;28;20020;-67
2022/01/19 07:39:14;;;;;;;41.23;20.70;;;6.50;78.10;;;;;;5095374;28;20492;-66
2022/01/19 07:41:40;;;;;;;36.30;21.03;;;6.50;78.10;;;;;;5086230;28;20024;-66
2022/01/19 07:44:25;;;;;;;38.73;22.17;;;6.50;78.10;;;;;;5095559;28;20054;-66
2022/01/19 07:47:09;;;;;;;38.47;21.07;;;6.50;78.10;;;;;;5095861;28;20039;-66
2022/01/19 07:49:52;;;;;;;39.90;21.53;;;6.50;78.00;;;;;;5095278;28;20047;-66
2022/01/19 07:52:45;;;;;;;40.50;19.83;;;6.50;78.10;;;;;;5080985;28;20039;-66
2022/01/19 07:55:30;;;;;;;37.20;20.63;;;6.50;78.10;;;;;;5078924;28;20027;-66
2022/01/19 07:58:21;;;;;;;31.80;17.48;;;6.50;78.10;;;;;;5093978;28;20053;-66
2022/01/19 08:00:53;;;;;;;33.33;18.50;;;6.50;78.10;;;;;;5093252;28;20468;-66
2022/01/19 08:03:36;;;;;;;33.33;16.93;;;6.50;78.00;;;;;;5095007;28;20051;-66
2022/01/19 08:06:08;;;;;;;33.37;18.97;;;6.50;78.00;;;;;;5094756;28;20027;-65
2022/01/19 08:08:35;;;;;;;32.90;19.27;;;6.50;78.00;;;;;;5094502;28;20027;-67
2022/01/19 08:11:02;;;;;;;33.97;20.23;;;6.50;78.00;;;;;;5077211;28;20406;-66
2022/01/19 08:13:28;;;;;;;36.77;20.10;;;6.50;78.00;;;;;;5075903;28;20025;-65
2022/01/19 08:15:56;;;;;;;38.20;20.20;;;6.50;78.00;;;;;;5092378;28;20024;-65
2022/01/19 08:18:22;;;;;;;39.60;21.50;;;6.50;78.00;;;;;;5093854;28;20452;-65
2022/01/19 08:20:48;;;;;;;33.60;19.57;;;6.50;78.00;;;;;;5095364;28;20070;-65
2022/01/19 08:23:15;;;;;;;36.50;21.17;;;6.50;77.90;;;;;;5095810;28;20043;-65
2022/01/19 08:25:50;;;;;;;33.70;20.40;;;6.50;78.00;;;;;;5080344;28;20408;-65
2022/01/19 08:28:16;;;;;;;32.83;18.93;;;6.50;78.00;;;;;;5095178;28;20024;-65
2022/01/19 08:30:41;;;;;;;32.80;19.17;;;6.50;78.00;;;;;;5095930;28;20032;-65
2022/01/19 08:33:09;;;;;;;36.17;20.67;;;6.50;77.90;;;;;;5078958;28;20028;-65
2022/01/19 08:35:47;;;;;;;35.43;19.23;;;6.50;77.90;;;;;;5095558;28;20039;-65
2022/01/19 08:38:32;;;;;;;43.83;22.70;;;6.50;77.90;;;;;;5095929;28;20203;-65
2022/01/19 08:41:09;;;;;;;29.80;18.03;;;6.50;77.90;;;;;;5095530;28;20020;-65
2022/01/19 08:43:36;;;;;;;32.20;20.33;;;6.50;77.90;;;;;;5092645;28;20054;-65
2022/01/19 08:46:01;;;;;;;34.47;21.40;;;6.50;77.90;;;;;;5075690;28;20256;-65
2022/01/19 08:48:45;;;;;;;34.33;20.90;;;6.50;77.90;;;;;;5075339;28;20441;-65
2022/01/19 08:51:21;;;;;;;31.63;18.23;;;6.50;78.00;;;;;;5075451;28;20025;-65
2022/01/19 08:53:52;;;;;;;31.13;18.85;;;6.50;78.00;;;;;;5075407;28;20522;-65
2022/01/19 08:56:35;;;;;;;31.08;18.58;;;6.50;78.00;;;;;;5075108;28;20060;-65
2022/01/19 08:59:01;;;;;;;29.37;17.23;;;6.50;78.00;;;;;;5095075;28;20322;-65
2022/01/19 09:01:26;;;;;;;30.60;18.53;;;6.50;78.00;;;;;;5095203;28;20047;-65
2022/01/19 09:03:52;;;;;;;26.03;17.27;;;6.50;77.90;;;;;;5096136;28;20031;-65
2022/01/19 09:06:19;;;;;;;29.37;17.60;;;6.60;77.90;;;;;;5096156;28;20497;-65
2022/01/19 09:08:45;;;;;;;25.97;16.30;;;6.60;77.80;;;;;;5096608;28;20333;-65
2022/01/19 09:11:12;;;;;;;30.67;18.17;;;6.60;77.80;;;;;;5095651;28;20032;-65
2022/01/19 09:13:38;;;;;;;28.40;18.03;;;6.60;78.40;;;;;;5094809;28;20354;-65
2022/01/19 09:16:05;;;;;;;32.30;18.30;;;6.60;77.90;;;;;;5095275;28;20085;-65
2022/01/19 09:18:30;;;;;;;34.00;20.37;;;6.60;77.80;;;;;;5096191;28;20115;-65
2022/01/19 09:20:56;;;;;;;32.30;20.10;;;6.60;77.70;;;;;;5095018;28;20067;-65
2022/01/19 09:23:22;;;;;;;28.10;15.97;;;6.60;77.70;;;;;;5095851;28;20028;-65
2022/01/19 09:25:47;;;;;;;32.07;19.70;;;6.60;77.80;;;;;;5095082;28;20402;-66
2022/01/19 09:28:13;;;;;;;32.07;19.90;;;6.60;77.80;;;;;;5094874;28;20032;-65
2022/01/19 09:30:41;;;;;;;30.17;19.50;;;6.60;77.80;;;;;;5096115;28;20351;-65
2022/01/19 09:33:09;;;;;;;29.20;17.97;;;6.60;77.80;;;;;;5095500;28;20465;-65
2022/01/19 09:36:05;;;;;;;28.27;17.63;;;6.60;77.80;;;;;;5095800;28;20024;-65
2022/01/19 09:38:36;;;;;;;29.50;19.63;;;6.60;77.80;;;;;;5095669;28;20032;-65
2022/01/19 09:41:05;;;;;;;29.75;19.67;;;6.60;77.80;;;;;;5095361;28;20119;-65
2022/01/19 09:43:31;;;;;;;32.07;19.10;;;6.60;77.80;;;;;;5094425;28;20024;-65
2022/01/19 09:45:59;;;;;;;31.77;19.93;;;6.60;77.80;;;;;;5093705;28;20024;-65
2022/01/19 09:48:26;;;;;;;30.20;18.30;;;6.60;77.80;;;;;;5095625;28;20059;-65
2022/01/19 09:50:54;;;;;;;33.57;19.27;;;6.60;77.90;;;;;;5095925;28;20436;-65
2022/01/19 09:53:20;;;;;;;30.97;19.67;;;6.60;77.80;;;;;;5095489;28;20493;-65
2022/01/19 09:55:47;;;;;;;29.50;18.60;;;6.70;77.90;;;;;;5095496;28;20027;-65
2022/01/19 09:58:13;;;;;;;28.97;19.03;;;6.70;77.90;;;;;;5094692;28;20402;-65
2022/01/19 10:00:39;;;;;;;30.20;17.97;;;6.70;77.90;;;;;;5077023;28;20077;-65
2022/01/19 10:03:25;;;;;;;26.43;17.10;;;6.70;77.90;;;;;;5095358;28;20028;-65
2022/01/19 10:06:07;;;;;;;35.50;18.77;;;6.70;77.80;;;;;;5095140;28;20078;-66
2022/01/19 10:08:50;;;;;;;26.33;17.20;;;6.70;77.90;;;;;;5093680;28;20456;-64
2022/01/19 10:17:01;;;;;;;27.33;15.73;;;6.80;77.70;;;;;;5092877;28;20452;-67
2022/01/19 10:19:33;;;;;;;27.20;16.53;;;6.80;77.70;;;;;;5108984;28;20444;-67
2022/01/19 10:22:03;;;;;;;28.15;17.52;;;6.80;77.70;;;;;;5093154;28;20459;-67
2022/01/19 10:25:03;;;;;;;23.43;14.80;;;6.80;77.70;;;;;;5093033;28;20027;-67
2022/01/19 10:27:41;;;;;;;26.40;18.47;;;6.80;77.70;;;;;;5092247;28;20096;-66
2022/01/19 10:30:07;;;;;;;26.60;16.93;;;6.90;77.70;;;;;;5093090;28;20518;-66
2022/01/19 10:32:41;;;;;;;28.33;17.33;;;6.90;77.70;;;;;;5095175;28;20069;-64
2022/01/19 10:35:26;;;;;;;27.97;18.03;;;6.80;77.70;;;;;;5094876;28;20032;-64
2022/01/19 10:38:14;;;;;;;25.03;15.00;;;6.90;77.70;;;;;;5092777;28;20468;-64
2022/01/19 10:40:42;;;;;;;28.17;17.67;;;6.90;77.70;;;;;;5094721;28;20016;-64
2022/01/19 10:43:30;;;;;;;25.80;16.40;;;6.90;78.40;;;;;;5094824;28;20038;-64
2022/01/19 10:46:01;;;;;;;26.53;17.57;;;7.00;77.70;;;;;;5094935;28;20028;-64
2022/01/19 10:48:34;;;;;;;29.37;18.03;;;7.00;77.80;;;;;;5094369;28;20036;-64
2022/01/19 10:51:29;;;;;;;26.20;16.50;;;7.00;78.40;;;;;;5094828;28;20116;-64
2022/01/19 10:54:22;;;;;;;26.53;17.53;;;7.00;77.60;;;;;;5091036;28;20044;-64
2022/01/19 10:56:57;;;;;;;27.27;16.30;;;7.00;77.70;;;;;;5076928;28;20094;-65
2022/01/19 10:59:31;;;;;;;30.20;17.07;;;7.00;77.70;;;;;;5093362;28;20051;-65
2022/01/19 11:01:59;;;;;;;29.90;17.90;;;7.00;77.70;;;;;;5094536;28;20356;-65
2022/01/19 11:04:37;;;;;;;24.63;16.07;;;7.00;77.80;;;;;;5094243;28;20035;-65
2022/01/19 11:07:16;;;;;;;30.13;17.53;;;7.00;77.80;;;;;;5094492;28;20024;-65
2022/01/19 11:09:56;;;;;;;27.90;18.40;;;7.00;77.80;;;;;;5087577;28;20084;-65
2022/01/19 11:12:26;;;;;;;30.43;18.00;;;7.00;77.80;;;;;;5093092;28;20363;-65
2022/01/19 11:14:51;;;;;;;28.27;18.23;;;7.00;77.80;;;;;;5076234;28;20032;-65
2022/01/19 11:17:17;;;;;;;26.77;18.33;;;7.00;77.80;;;;;;5094590;28;20106;-65
2022/01/19 11:19:43;;;;;;;26.13;17.33;;;7.10;77.80;;;;;;5094190;28;20035;-65
2022/01/19 11:22:15;;;;;;;30.70;18.80;;;7.10;77.80;;;;;;5093593;28;20073;-65
2022/01/19 11:25:04;;;;;;;25.70;16.25;;;7.10;77.80;;;;;;5074981;28;20025;-65
2022/01/19 11:27:41;;;;;;;28.30;18.07;;;7.10;77.90;;;;;;5074251;28;20031;-66
2022/01/19 11:30:26;;;;;;;29.53;18.33;;;7.00;77.90;;;;;;5086191;28;20052;-65
2022/01/19 11:33:24;;;;;;;26.63;15.93;;;7.10;78.00;;;;;;5094454;28;20032;-65
2022/01/19 11:35:55;;;;;;;27.20;17.03;;;7.10;78.00;;;;;;5075056;28;20036;-66
2022/01/19 11:38:40;;;;;;;30.43;18.97;;;7.10;78.20;;;;;;5092815;28;20043;-66
2022/01/19 11:41:08;;;;;;;27.57;17.37;;;7.10;78.20;;;;;;5093715;28;20024;-66
2022/01/19 11:43:47;;;;;;;30.67;18.47;;;7.10;78.20;;;;;;5093230;28;20126;-66
2022/01/19 11:46:29;;;;;;;23.37;15.10;;;7.10;78.10;;;;;;5089696;28;20036;-65
2022/01/19 11:48:56;;;;;;;28.03;16.27;;;7.10;78.10;;;;;;5091535;28;20078;-66
2022/01/19 11:51:28;;;;;;;30.17;17.60;;;7.10;78.10;;;;;;5093544;28;20035;-65
2022/01/19 11:54:23;;;;;;;26.77;16.97;;;7.10;78.20;;;;;;5094820;28;20554;-65
2022/01/19 11:57:02;;;;;;;30.37;19.37;;;7.20;78.20;;;;;;5097094;28;20107;-65
2022/01/19 11:59:46;;;;;;;31.87;19.53;;;7.20;78.20;;;;;;5095097;28;20028;-65
2022/01/19 12:02:20;;;;;;;32.40;20.50;;;7.20;78.20;;;;;;5095891;28;20059;-65
2022/01/19 12:04:52;;;;;;;31.47;18.87;;;7.20;78.30;;;;;;5093820;28;20486;-64
2022/01/19 12:07:43;;;;;;;26.98;17.73;;;7.20;78.30;;;;;;5096191;28;20032;-65
2022/01/19 12:10:12;;;;;;;30.23;16.42;;;7.20;78.30;;;;;;5093666;28;20032;-64
2022/01/19 12:12:47;;;;;;;27.50;17.60;;;7.20;78.40;;;;;;5095632;28;20031;-64
2022/01/19 12:15:55;;;;;;;26.17;16.67;;;7.20;78.40;;;;;;5096588;28;20116;-64
2022/01/19 12:18:42;;;;;;;27.27;17.13;;;7.20;78.40;;;;;;5095694;28;20028;-64
2022/01/19 12:21:21;;;;;;;26.80;16.67;;;7.20;78.40;;;;;;5075835;28;20033;-65
2022/01/19 12:23:48;;;;;;;24.53;15.50;;;7.20;78.40;;;;;;5088708;28;20381;-64
2022/01/19 12:26:14;;;;;;;30.37;19.50;;;7.30;78.40;;;;;;5096712;28;20035;-65
2022/01/19 12:28:49;;;;;;;25.80;15.37;;;7.30;78.50;;;;;;5096605;28;20074;-65
2022/01/19 12:31:24;;;;;;;27.27;17.53;;;7.30;78.40;;;;;;5078621;28;20024;-65
2022/01/19 12:34:08;;;;;;;26.10;15.73;;;7.30;78.40;;;;;;5095383;28;20036;-66
2022/01/19 12:36:46;;;;;;;22.73;15.47;;;7.40;78.50;;;;;;5091307;28;20027;-64
2022/01/19 12:39:24;;;;;;;24.33;16.77;;;7.40;78.40;;;;;;5096813;28;20043;-65
2022/01/19 12:42:02;;;;;;;28.67;16.97;;;7.50;78.20;;;;;;5094681;28;20467;-65
2022/01/19 12:44:39;;;;;;;25.90;15.37;;;7.50;78.10;;;;;;5096162;28;20111;-65
2022/01/19 12:47:25;;;;;;;28.23;17.77;;;7.50;78.10;;;;;;5096057;28;20030;-65
2022/01/19 12:50:18;;;;;;;27.57;17.23;;;7.50;78.10;;;;;;5095447;28;20032;-65
2022/01/19 12:52:49;;;;;;;27.27;17.23;;;7.50;78.10;;;;;;5095408;28;20024;-65
2022/01/19 12:55:24;;;;;;;26.27;16.35;;;7.60;78.10;;;;;;5096574;28;20034;-65
2022/01/19 12:57:51;;;;;;;26.43;19.00;;;7.60;78.00;;;;;;5095214;28;20459;-65
2022/01/19 13:00:23;;;;;;;28.47;19.17;;;7.60;78.00;;;;;;5095187;28;20043;-65
2022/01/19 13:02:49;;;;;;;27.55;18.45;;;7.60;78.70;;;;;;5094922;28;20386;-65
2022/01/19 13:05:18;;;;;;;26.23;17.83;;;7.60;78.00;;;;;;5096284;28;20066;-65
2022/01/19 13:07:54;;;;;;;27.00;17.53;;;7.60;78.00;;;;;;5094643;28;20472;-66
2022/01/19 13:15:43;;;;;;;27.87;18.13;;;7.60;78.00;;;;;;5096227;28;20119;-65
2022/01/19 13:18:14;;;;;;;30.30;19.23;;;7.60;78.00;;;;;;5095817;28;20028;-65
2022/01/19 13:20:51;;;;;;;28.83;17.40;;;7.60;78.00;;;;;;5096682;28;20038;-65
2022/01/19 13:23:17;;;;;;;30.50;19.57;;;7.50;78.00;;;;;;5074064;28;20021;-65
2022/01/19 13:25:44;;;;;;;28.20;17.47;;;7.60;78.10;;;;;;5075943;28;20085;-65
2022/01/19 13:28:09;;;;;;;32.47;19.63;;;7.60;78.10;;;;;;5075523;28;20089;-66
2022/01/19 13:30:35;;;;;;;33.10;19.53;;;7.60;78.10;;;;;;5091111;28;20040;-65
2022/01/19 13:33:12;;;;;;;30.57;19.70;;;7.60;78.10;;;;;;5074384;28;20037;-65
2022/01/19 13:35:38;;;;;;;28.87;18.57;;;7.60;78.10;;;;;;5087109;28;20036;-65
2022/01/19 13:38:12;;;;;;;25.93;16.90;;;7.60;78.10;;;;;;5095370;28;20056;-65
2022/01/19 13:40:37;;;;;;;33.63;20.83;;;7.70;78.10;;;;;;5094346;28;20110;-65
2022/01/19 13:43:10;;;;;;;25.17;16.33;;;7.60;78.00;;;;;;5094174;28;20218;-65
2022/01/19 13:48:32;;;;;;;28.93;18.97;;;7.60;78.00;;;;;;5095208;28;20032;-66
2022/01/19 13:51:25;;;;;;;25.83;16.73;;;7.70;78.00;;;;;;5094602;28;20455;-66
2022/01/19 13:53:53;;;;;;;31.27;18.90;;;7.70;78.00;;;;;;5092128;28;20064;-66
2022/01/19 13:56:32;;;;;;;27.90;17.80;;;7.60;77.90;;;;;;5093940;28;20039;-65
2022/01/19 13:59:06;;;;;;;29.87;18.30;;;7.60;78.00;;;;;;5094724;28;20352;-66
2022/01/19 14:01:57;;;;;;;31.23;19.00;;;7.60;78.10;;;;;;5094360;28;20028;-66
2022/01/19 14:04:24;;;;;;;31.80;20.42;;;7.60;78.10;;;;;;5092170;28;20095;-65
2022/01/19 14:06:50;;;;;;;33.70;21.60;;;7.60;78.20;;;;;;5094825;28;20028;-65
2022/01/19 14:09:16;;;;;;;29.10;18.30;;;7.60;78.20;;;;;;5090912;28;20040;-65
2022/01/19 14:11:49;;;;;;;30.70;20.10;;;7.60;78.20;;;;;;5089460;28;20036;-65
2022/01/19 14:14:23;;;;;;;32.60;21.10;;;7.60;78.30;;;;;;5094077;28;20032;-66
2022/01/19 14:16:50;;;;;;;33.90;21.73;;;7.60;78.20;;;;;;5093915;28;20309;-66
2022/01/19 14:19:25;;;;;;;31.77;20.53;;;7.60;78.20;;;;;;5091669;28;20387;-66
2022/01/19 14:22:07;;;;;;;29.60;19.60;;;7.60;78.30;;;;;;5094724;28;20028;-66
2022/01/19 14:24:43;;;;;;;30.40;18.07;;;7.60;78.30;;;;;;5094039;28;20039;-66
2022/01/19 14:27:13;;;;;;;29.87;18.30;;;7.60;78.30;;;;;;5094090;28;20026;-66
2022/01/19 14:29:58;;;;;;;30.43;19.57;;;7.60;78.20;;;;;;5092674;28;20040;-66
2022/01/19 14:32:46;;;;;;;30.70;19.80;;;7.70;78.20;;;;;;5092649;28;20031;-66
2022/01/19 14:35:46;;;;;;;28.67;19.23;;;7.70;78.10;;;;;;5098215;28;20115;-66